FABL/BFN METAR and TAF weather

Enter ICAO airport designator
Station Type Date Time Source
FABL METAR 2020/07/03 13:00 UTC NOAA

FABL 031300Z VRB03KT CAVOK 20/M08 Q1027 NOSIG


Station Type Date Time Source
FABL Decoded METAR 2020/07/03 13:00 UTC NOAA

Bloemfontein, Bloemfontein Airport, South Africa (FABL) 29-06S 026-18E 1400M
Jul 03, 2020 - 09:00 AM EDT / 2020.07.03 1300 UTC
Wind: Variable at 3 MPH (3 KT):0
Visibility: greater than 7 mile(s):0
Temperature: 68 F (20 C)
Dew Point: 17 F (-8 C)
Relative Humidity: 14%
Pressure (altimeter): 30.33 in. Hg (1027 hPa)
ob: FABL 031300Z VRB03KT CAVOK 20/M08 Q1027 NOSIG
cycle: 13

Station Type Date Time Source
FABL TAF 2020/07/03 12:03 UTC NOAA

TAF TAF FABL 031000Z 0312/0412 VRB03KT CAVOK TX19/0313Z TNM02/0405Z

Example: see airport list